sensor_id;sensor_type;location;lat;lon;timestamp;P1;durP1;ratioP1;P2;durP2;ratioP2
49310;SDS011;35177;45.900;5.946;2023-05-10T00:01:31;2.10;;;0.93;;
49310;SDS011;35177;45.900;5.946;2023-05-10T00:03:56;2.28;;;1.10;;
49310;SDS011;35177;45.900;5.946;2023-05-10T00:06:21;2.85;;;1.08;;
49310;SDS011;35177;45.900;5.946;2023-05-10T00:08:47;1.35;;;0.95;;
49310;SDS011;35177;45.900;5.946;2023-05-10T00:11:12;1.83;;;0.90;;
49310;SDS011;35177;45.900;5.946;2023-05-10T00:13:37;1.52;;;1.10;;
49310;SDS011;35177;45.900;5.946;2023-05-10T00:16:02;3.42;;;0.70;;
49310;SDS011;35177;45.900;5.946;2023-05-10T00:18:28;3.55;;;0.90;;
49310;SDS011;35177;45.900;5.946;2023-05-10T00:20:53;5.47;;;1.00;;
49310;SDS011;35177;45.900;5.946;2023-05-10T00:23:18;0.80;;;0.80;;
49310;SDS011;35177;45.900;5.946;2023-05-10T00:25:44;2.60;;;0.82;;
49310;SDS011;35177;45.900;5.946;2023-05-10T00:28:09;1.35;;;0.80;;
49310;SDS011;35177;45.900;5.946;2023-05-10T00:30:34;2.10;;;0.88;;
49310;SDS011;35177;45.900;5.946;2023-05-10T00:33:00;0.90;;;0.90;;
49310;SDS011;35177;45.900;5.946;2023-05-10T00:35:25;2.33;;;0.70;;
49310;SDS011;35177;45.900;5.946;2023-05-10T00:37:51;1.73;;;0.80;;
49310;SDS011;35177;45.900;5.946;2023-05-10T00:40:16;0.73;;;0.60;;
49310;SDS011;35177;45.900;5.946;2023-05-10T00:42:41;3.75;;;0.80;;
49310;SDS011;35177;45.900;5.946;2023-05-10T00:45:07;1.70;;;0.60;;
49310;SDS011;35177;45.900;5.946;2023-05-10T00:47:32;2.15;;;0.90;;
49310;SDS011;35177;45.900;5.946;2023-05-10T00:49:58;2.50;;;1.00;;
49310;SDS011;35177;45.900;5.946;2023-05-10T00:52:24;3.22;;;1.08;;
49310;SDS011;35177;45.900;5.946;2023-05-10T00:54:50;2.08;;;1.00;;
49310;SDS011;35177;45.900;5.946;2023-05-10T00:57:16;2.45;;;0.85;;
49310;SDS011;35177;45.900;5.946;2023-05-10T00:59:42;1.48;;;1.10;;
49310;SDS011;35177;45.900;5.946;2023-05-10T01:02:07;4.22;;;1.08;;
49310;SDS011;35177;45.900;5.946;2023-05-10T01:04:32;1.17;;;1.08;;
49310;SDS011;35177;45.900;5.946;2023-05-10T01:06:58;3.80;;;0.90;;
49310;SDS011;35177;45.900;5.946;2023-05-10T01:09:23;2.40;;;1.15;;
49310;SDS011;35177;45.900;5.946;2023-05-10T01:11:51;1.02;;;0.93;;
49310;SDS011;35177;45.900;5.946;2023-05-10T01:14:17;3.78;;;1.00;;
49310;SDS011;35177;45.900;5.946;2023-05-10T01:16:43;2.30;;;0.93;;
49310;SDS011;35177;45.900;5.946;2023-05-10T01:19:30;1.50;;;0.93;;
49310;SDS011;35177;45.900;5.946;2023-05-10T01:32:37;1.00;;;0.90;;
49310;SDS011;35177;45.900;5.946;2023-05-10T01:35:08;2.33;;;0.70;;
49310;SDS011;35177;45.900;5.946;2023-05-10T01:37:40;2.88;;;0.90;;
49310;SDS011;35177;45.900;5.946;2023-05-10T01:43:00;1.52;;;0.65;;
49310;SDS011;35177;45.900;5.946;2023-05-10T01:48:08;3.85;;;0.90;;
49310;SDS011;35177;45.900;5.946;2023-05-10T01:50:35;3.03;;;0.70;;
49310;SDS011;35177;45.900;5.946;2023-05-10T01:53:01;2.72;;;0.90;;
49310;SDS011;35177;45.900;5.946;2023-05-10T01:55:28;1.77;;;1.10;;
49310;SDS011;35177;45.900;5.946;2023-05-10T01:57:59;4.10;;;1.00;;
49310;SDS011;35177;45.900;5.946;2023-05-10T02:00:26;6.47;;;1.00;;
49310;SDS011;35177;45.900;5.946;2023-05-10T02:02:52;1.80;;;1.20;;
49310;SDS011;35177;45.900;5.946;2023-05-10T02:05:19;1.55;;;0.93;;
49310;SDS011;35177;45.900;5.946;2023-05-10T02:07:45;3.15;;;1.10;;
49310;SDS011;35177;45.900;5.946;2023-05-10T02:10:11;2.10;;;1.05;;
49310;SDS011;35177;45.900;5.946;2023-05-10T02:12:37;4.30;;;0.90;;
49310;SDS011;35177;45.900;5.946;2023-05-10T02:15:04;1.80;;;1.00;;
49310;SDS011;35177;45.900;5.946;2023-05-10T02:17:31;1.00;;;0.90;;
49310;SDS011;35177;45.900;5.946;2023-05-10T02:19:57;5.07;;;0.90;;
49310;SDS011;35177;45.900;5.946;2023-05-10T02:22:23;1.08;;;0.90;;
49310;SDS011;35177;45.900;5.946;2023-05-10T02:24:49;1.73;;;1.00;;
49310;SDS011;35177;45.900;5.946;2023-05-10T02:27:15;5.10;;;1.08;;
49310;SDS011;35177;45.900;5.946;2023-05-10T02:29:40;3.55;;;0.90;;
49310;SDS011;35177;45.900;5.946;2023-05-10T02:32:06;1.02;;;0.93;;
49310;SDS011;35177;45.900;5.946;2023-05-10T02:34:31;3.03;;;1.05;;
49310;SDS011;35177;45.900;5.946;2023-05-10T02:36:57;7.10;;;0.90;;
49310;SDS011;35177;45.900;5.946;2023-05-10T02:39:23;1.48;;;0.90;;
49310;SDS011;35177;45.900;5.946;2023-05-10T02:41:49;1.40;;;0.80;;
49310;SDS011;35177;45.900;5.946;2023-05-10T02:44:17;1.20;;;1.10;;
49310;SDS011;35177;45.900;5.946;2023-05-10T02:46:43;5.78;;;1.00;;
49310;SDS011;35177;45.900;5.946;2023-05-10T02:49:08;1.55;;;0.98;;
49310;SDS011;35177;45.900;5.946;2023-05-10T02:51:34;1.13;;;0.90;;
49310;SDS011;35177;45.900;5.946;2023-05-10T02:54:02;2.08;;;1.00;;
49310;SDS011;35177;45.900;5.946;2023-05-10T02:56:33;5.30;;;1.20;;
49310;SDS011;35177;45.900;5.946;2023-05-10T02:58:59;2.67;;;1.67;;
49310;SDS011;35177;45.900;5.946;2023-05-10T03:01:24;3.25;;;1.60;;
49310;SDS011;35177;45.900;5.946;2023-05-10T03:03:49;2.28;;;1.17;;
49310;SDS011;35177;45.900;5.946;2023-05-10T03:06:15;1.73;;;1.02;;
49310;SDS011;35177;45.900;5.946;2023-05-10T03:08:41;2.42;;;0.95;;
49310;SDS011;35177;45.900;5.946;2023-05-10T03:13:49;2.72;;;1.48;;
49310;SDS011;35177;45.900;5.946;2023-05-10T03:16:24;1.70;;;1.30;;
49310;SDS011;35177;45.900;5.946;2023-05-10T03:19:06;1.52;;;1.00;;
49310;SDS011;35177;45.900;5.946;2023-05-10T03:21:37;3.13;;;1.23;;
49310;SDS011;35177;45.900;5.946;2023-05-10T03:24:07;2.40;;;1.50;;
49310;SDS011;35177;45.900;5.946;2023-05-10T03:26:33;1.80;;;1.27;;
49310;SDS011;35177;45.900;5.946;2023-05-10T03:28:58;1.80;;;1.30;;
49310;SDS011;35177;45.900;5.946;2023-05-10T03:31:24;4.00;;;1.20;;
49310;SDS011;35177;45.900;5.946;2023-05-10T03:33:50;1.30;;;1.20;;
49310;SDS011;35177;45.900;5.946;2023-05-10T03:36:16;2.63;;;1.02;;
49310;SDS011;35177;45.900;5.946;2023-05-10T03:38:41;2.17;;;1.40;;
49310;SDS011;35177;45.900;5.946;2023-05-10T03:41:07;2.65;;;1.20;;
49310;SDS011;35177;45.900;5.946;2023-05-10T03:43:32;1.83;;;1.17;;
49310;SDS011;35177;45.900;5.946;2023-05-10T03:45:57;2.75;;;1.27;;
49310;SDS011;35177;45.900;5.946;2023-05-10T03:48:22;7.68;;;1.55;;
49310;SDS011;35177;45.900;5.946;2023-05-10T03:50:48;2.28;;;1.00;;
49310;SDS011;35177;45.900;5.946;2023-05-10T03:53:14;3.20;;;1.40;;
49310;SDS011;35177;45.900;5.946;2023-05-10T03:55:39;1.63;;;1.23;;
49310;SDS011;35177;45.900;5.946;2023-05-10T03:58:05;3.42;;;1.33;;
49310;SDS011;35177;45.900;5.946;2023-05-10T04:00:30;2.13;;;1.05;;
49310;SDS011;35177;45.900;5.946;2023-05-10T04:02:56;1.20;;;1.10;;
49310;SDS011;35177;45.900;5.946;2023-05-10T04:05:22;1.30;;;0.88;;
49310;SDS011;35177;45.900;5.946;2023-05-10T04:07:47;3.03;;;1.08;;
49310;SDS011;35177;45.900;5.946;2023-05-10T04:10:14;6.45;;;3.90;;
49310;SDS011;35177;45.900;5.946;2023-05-10T04:12:41;1.30;;;1.15;;
49310;SDS011;35177;45.900;5.946;2023-05-10T04:15:06;2.33;;;0.70;;
49310;SDS011;35177;45.900;5.946;2023-05-10T04:17:32;2.60;;;0.90;;
49310;SDS011;35177;45.900;5.946;2023-05-10T04:19:57;0.70;;;0.70;;
49310;SDS011;35177;45.900;5.946;2023-05-10T04:22:22;6.95;;;1.00;;
49310;SDS011;35177;45.900;5.946;2023-05-10T04:24:48;1.00;;;0.88;;
49310;SDS011;35177;45.900;5.946;2023-05-10T04:27:13;10.07;;;6.15;;
49310;SDS011;35177;45.900;5.946;2023-05-10T04:29:38;4.82;;;4.38;;
49310;SDS011;35177;45.900;5.946;2023-05-10T04:32:04;2.10;;;1.80;;
49310;SDS011;35177;45.900;5.946;2023-05-10T04:34:29;3.95;;;1.58;;
49310;SDS011;35177;45.900;5.946;2023-05-10T04:36:54;1.50;;;1.30;;
49310;SDS011;35177;45.900;5.946;2023-05-10T04:39:20;3.45;;;2.60;;
49310;SDS011;35177;45.900;5.946;2023-05-10T04:41:45;1.42;;;1.30;;
49310;SDS011;35177;45.900;5.946;2023-05-10T04:44:10;3.80;;;1.35;;
49310;SDS011;35177;45.900;5.946;2023-05-10T04:46:36;4.28;;;3.35;;
49310;SDS011;35177;45.900;5.946;2023-05-10T04:49:01;7.47;;;4.95;;
49310;SDS011;35177;45.900;5.946;2023-05-10T04:51:26;10.77;;;5.47;;
49310;SDS011;35177;45.900;5.946;2023-05-10T04:53:52;9.63;;;6.70;;
49310;SDS011;35177;45.900;5.946;2023-05-10T04:56:17;4.85;;;3.20;;
49310;SDS011;35177;45.900;5.946;2023-05-10T04:58:42;2.15;;;1.13;;
49310;SDS011;35177;45.900;5.946;2023-05-10T05:01:08;4.28;;;2.22;;
49310;SDS011;35177;45.900;5.946;2023-05-10T05:03:33;4.72;;;2.63;;
49310;SDS011;35177;45.900;5.946;2023-05-10T05:05:59;7.05;;;4.47;;
49310;SDS011;35177;45.900;5.946;2023-05-10T05:08:24;3.15;;;1.92;;
49310;SDS011;35177;45.900;5.946;2023-05-10T05:10:49;3.15;;;1.30;;
49310;SDS011;35177;45.900;5.946;2023-05-10T05:13:17;9.05;;;4.82;;
49310;SDS011;35177;45.900;5.946;2023-05-10T05:15:43;3.50;;;1.17;;
49310;SDS011;35177;45.900;5.946;2023-05-10T05:18:08;3.10;;;1.20;;
49310;SDS011;35177;45.900;5.946;2023-05-10T05:20:33;2.67;;;1.50;;
49310;SDS011;35177;45.900;5.946;2023-05-10T05:22:59;10.13;;;5.35;;
49310;SDS011;35177;45.900;5.946;2023-05-10T05:25:24;9.73;;;2.53;;
49310;SDS011;35177;45.900;5.946;2023-05-10T05:27:50;10.35;;;6.97;;
49310;SDS011;35177;45.900;5.946;2023-05-10T05:30:15;11.27;;;7.22;;
49310;SDS011;35177;45.900;5.946;2023-05-10T05:32:40;9.88;;;5.60;;
49310;SDS011;35177;45.900;5.946;2023-05-10T05:35:06;5.57;;;1.73;;
49310;SDS011;35177;45.900;5.946;2023-05-10T05:37:31;2.75;;;1.10;;
49310;SDS011;35177;45.900;5.946;2023-05-10T05:39:57;1.80;;;1.10;;
49310;SDS011;35177;45.900;5.946;2023-05-10T05:42:22;2.38;;;1.30;;
49310;SDS011;35177;45.900;5.946;2023-05-10T05:44:48;2.78;;;0.90;;
49310;SDS011;35177;45.900;5.946;2023-05-10T05:47:13;7.22;;;3.20;;
49310;SDS011;35177;45.900;5.946;2023-05-10T05:49:38;4.85;;;3.30;;
49310;SDS011;35177;45.900;5.946;2023-05-10T05:52:04;2.65;;;0.90;;
49310;SDS011;35177;45.900;5.946;2023-05-10T05:54:29;1.88;;;0.90;;
49310;SDS011;35177;45.900;5.946;2023-05-10T05:56:58;3.47;;;0.82;;
49310;SDS011;35177;45.900;5.946;2023-05-10T05:59:24;6.22;;;2.90;;
49310;SDS011;35177;45.900;5.946;2023-05-10T06:01:49;7.70;;;3.83;;
49310;SDS011;35177;45.900;5.946;2023-05-10T06:04:15;8.80;;;4.07;;
49310;SDS011;35177;45.900;5.946;2023-05-10T06:06:40;8.13;;;4.10;;
49310;SDS011;35177;45.900;5.946;2023-05-10T06:09:05;9.30;;;5.13;;
49310;SDS011;35177;45.900;5.946;2023-05-10T06:11:31;6.30;;;2.00;;
49310;SDS011;35177;45.900;5.946;2023-05-10T06:13:57;7.85;;;3.42;;
49310;SDS011;35177;45.900;5.946;2023-05-10T06:16:22;5.32;;;2.85;;
49310;SDS011;35177;45.900;5.946;2023-05-10T06:18:48;3.65;;;1.27;;
49310;SDS011;35177;45.900;5.946;2023-05-10T06:21:13;4.07;;;1.23;;
49310;SDS011;35177;45.900;5.946;2023-05-10T06:23:39;6.18;;;1.30;;
49310;SDS011;35177;45.900;5.946;2023-05-10T06:26:05;2.75;;;0.75;;
49310;SDS011;35177;45.900;5.946;2023-05-10T06:28:30;4.47;;;0.80;;
49310;SDS011;35177;45.900;5.946;2023-05-10T06:30:57;5.57;;;1.33;;
49310;SDS011;35177;45.900;5.946;2023-05-10T06:33:22;3.83;;;0.85;;
49310;SDS011;35177;45.900;5.946;2023-05-10T06:35:47;4.05;;;1.83;;
49310;SDS011;35177;45.900;5.946;2023-05-10T06:38:13;5.40;;;3.42;;
49310;SDS011;35177;45.900;5.946;2023-05-10T06:40:40;7.53;;;1.90;;
49310;SDS011;35177;45.900;5.946;2023-05-10T06:43:06;3.03;;;0.80;;
49310;SDS011;35177;45.900;5.946;2023-05-10T06:45:31;4.78;;;0.98;;
49310;SDS011;35177;45.900;5.946;2023-05-10T06:47:58;2.15;;;0.88;;
49310;SDS011;35177;45.900;5.946;2023-05-10T06:50:23;5.45;;;0.90;;
49310;SDS011;35177;45.900;5.946;2023-05-10T06:52:48;3.08;;;1.00;;
49310;SDS011;35177;45.900;5.946;2023-05-10T06:55:13;4.00;;;1.27;;
49310;SDS011;35177;45.900;5.946;2023-05-10T06:57:39;6.32;;;2.53;;
49310;SDS011;35177;45.900;5.946;2023-05-10T07:00:04;8.52;;;1.50;;
49310;SDS011;35177;45.900;5.946;2023-05-10T07:02:30;2.03;;;1.00;;
49310;SDS011;35177;45.900;5.946;2023-05-10T07:04:55;7.70;;;1.50;;
49310;SDS011;35177;45.900;5.946;2023-05-10T07:07:21;3.33;;;0.85;;
49310;SDS011;35177;45.900;5.946;2023-05-10T07:09:46;5.60;;;1.48;;
49310;SDS011;35177;45.900;5.946;2023-05-10T07:12:12;4.38;;;1.10;;
49310;SDS011;35177;45.900;5.946;2023-05-10T07:14:37;3.78;;;0.90;;
49310;SDS011;35177;45.900;5.946;2023-05-10T07:17:02;3.83;;;0.70;;
49310;SDS011;35177;45.900;5.946;2023-05-10T07:19:27;4.43;;;0.95;;
49310;SDS011;35177;45.900;5.946;2023-05-10T07:21:54;3.13;;;1.20;;
49310;SDS011;35177;45.900;5.946;2023-05-10T07:24:20;1.73;;;0.70;;
49310;SDS011;35177;45.900;5.946;2023-05-10T07:26:45;4.25;;;1.13;;
49310;SDS011;35177;45.900;5.946;2023-05-10T07:29:11;4.10;;;1.10;;
49310;SDS011;35177;45.900;5.946;2023-05-10T07:31:36;4.30;;;0.90;;
49310;SDS011;35177;45.900;5.946;2023-05-10T07:34:02;3.83;;;0.98;;
49310;SDS011;35177;45.900;5.946;2023-05-10T07:36:27;5.82;;;2.00;;
49310;SDS011;35177;45.900;5.946;2023-05-10T07:38:52;7.07;;;2.65;;
49310;SDS011;35177;45.900;5.946;2023-05-10T07:41:18;3.75;;;0.90;;
49310;SDS011;35177;45.900;5.946;2023-05-10T07:43:43;2.60;;;0.90;;
49310;SDS011;35177;45.900;5.946;2023-05-10T07:46:09;3.38;;;1.42;;
49310;SDS011;35177;45.900;5.946;2023-05-10T07:48:36;4.72;;;1.10;;
49310;SDS011;35177;45.900;5.946;2023-05-10T07:51:01;3.30;;;1.13;;
49310;SDS011;35177;45.900;5.946;2023-05-10T07:53:26;7.30;;;1.00;;
49310;SDS011;35177;45.900;5.946;2023-05-10T07:55:53;5.20;;;1.10;;
49310;SDS011;35177;45.900;5.946;2023-05-10T07:58:19;1.67;;;0.80;;
49310;SDS011;35177;45.900;5.946;2023-05-10T08:00:44;3.13;;;1.00;;
49310;SDS011;35177;45.900;5.946;2023-05-10T08:03:10;3.88;;;0.90;;
49310;SDS011;35177;45.900;5.946;2023-05-10T08:05:35;2.90;;;1.02;;
49310;SDS011;35177;45.900;5.946;2023-05-10T08:08:00;4.30;;;0.98;;
49310;SDS011;35177;45.900;5.946;2023-05-10T08:10:25;3.50;;;0.90;;
49310;SDS011;35177;45.900;5.946;2023-05-10T08:12:51;4.68;;;1.10;;
49310;SDS011;35177;45.900;5.946;2023-05-10T08:15:16;4.28;;;1.05;;
49310;SDS011;35177;45.900;5.946;2023-05-10T08:17:42;2.90;;;0.88;;
49310;SDS011;35177;45.900;5.946;2023-05-10T08:20:08;6.00;;;1.20;;
49310;SDS011;35177;45.900;5.946;2023-05-10T08:22:33;4.22;;;1.23;;
49310;SDS011;35177;45.900;5.946;2023-05-10T08:24:58;2.90;;;0.90;;
49310;SDS011;35177;45.900;5.946;2023-05-10T08:27:24;5.18;;;1.20;;
49310;SDS011;35177;45.900;5.946;2023-05-10T08:29:49;6.05;;;0.95;;
49310;SDS011;35177;45.900;5.946;2023-05-10T08:32:14;4.32;;;0.80;;
49310;SDS011;35177;45.900;5.946;2023-05-10T08:34:40;7.78;;;1.02;;
49310;SDS011;35177;45.900;5.946;2023-05-10T08:37:05;5.72;;;1.02;;
49310;SDS011;35177;45.900;5.946;2023-05-10T08:39:33;2.70;;;1.10;;
49310;SDS011;35177;45.900;5.946;2023-05-10T08:41:59;2.55;;;0.77;;
49310;SDS011;35177;45.900;5.946;2023-05-10T08:44:26;4.47;;;1.10;;
49310;SDS011;35177;45.900;5.946;2023-05-10T08:46:51;3.92;;;1.17;;
49310;SDS011;35177;45.900;5.946;2023-05-10T08:49:18;4.10;;;1.20;;
49310;SDS011;35177;45.900;5.946;2023-05-10T08:51:47;3.35;;;1.00;;
49310;SDS011;35177;45.900;5.946;2023-05-10T08:54:14;2.15;;;1.35;;
49310;SDS011;35177;45.900;5.946;2023-05-10T08:56:40;3.38;;;0.98;;
49310;SDS011;35177;45.900;5.946;2023-05-10T08:59:05;1.35;;;0.80;;
49310;SDS011;35177;45.900;5.946;2023-05-10T09:01:31;2.17;;;1.02;;
49310;SDS011;35177;45.900;5.946;2023-05-10T09:03:56;6.25;;;1.00;;
49310;SDS011;35177;45.900;5.946;2023-05-10T09:06:22;3.83;;;1.17;;
49310;SDS011;35177;45.900;5.946;2023-05-10T09:08:47;5.90;;;1.02;;
49310;SDS011;35177;45.900;5.946;2023-05-10T09:11:13;2.85;;;1.00;;
49310;SDS011;35177;45.900;5.946;2023-05-10T09:13:38;4.00;;;1.05;;
49310;SDS011;35177;45.900;5.946;2023-05-10T09:16:04;2.03;;;1.00;;
49310;SDS011;35177;45.900;5.946;2023-05-10T09:18:29;2.17;;;1.00;;
49310;SDS011;35177;45.900;5.946;2023-05-10T09:20:55;3.78;;;1.15;;
49310;SDS011;35177;45.900;5.946;2023-05-10T09:23:20;3.95;;;1.30;;
49310;SDS011;35177;45.900;5.946;2023-05-10T09:25:45;4.70;;;0.90;;
49310;SDS011;35177;45.900;5.946;2023-05-10T09:28:10;4.38;;;1.13;;
49310;SDS011;35177;45.900;5.946;2023-05-10T09:30:36;4.72;;;1.23;;
49310;SDS011;35177;45.900;5.946;2023-05-10T09:33:01;2.85;;;0.77;;
49310;SDS011;35177;45.900;5.946;2023-05-10T09:35:30;3.38;;;1.00;;
49310;SDS011;35177;45.900;5.946;2023-05-10T09:37:57;3.85;;;0.90;;
49310;SDS011;35177;45.900;5.946;2023-05-10T09:40:23;3.03;;;0.80;;
49310;SDS011;35177;45.900;5.946;2023-05-10T09:45:23;4.25;;;0.68;;
49310;SDS011;35177;45.900;5.946;2023-05-10T09:47:49;2.78;;;0.70;;
49310;SDS011;35177;45.900;5.946;2023-05-10T09:50:14;1.73;;;0.70;;
49310;SDS011;35177;45.900;5.946;2023-05-10T09:52:53;3.70;;;0.60;;
49310;SDS011;35177;45.900;5.946;2023-05-10T09:55:19;1.83;;;0.80;;
49310;SDS011;35177;45.900;5.946;2023-05-10T09:57:45;3.92;;;0.70;;
49310;SDS011;35177;45.900;5.946;2023-05-10T10:00:11;1.92;;;0.45;;
49310;SDS011;35177;45.900;5.946;2023-05-10T10:02:41;2.75;;;0.60;;
49310;SDS011;35177;45.900;5.946;2023-05-10T10:05:06;1.17;;;0.63;;
49310;SDS011;35177;45.900;5.946;2023-05-10T10:07:32;2.03;;;0.65;;
49310;SDS011;35177;45.900;5.946;2023-05-10T10:09:58;1.85;;;0.60;;
49310;SDS011;35177;45.900;5.946;2023-05-10T10:12:23;2.50;;;0.60;;
49310;SDS011;35177;45.900;5.946;2023-05-10T10:14:49;0.85;;;0.60;;
49310;SDS011;35177;45.900;5.946;2023-05-10T10:17:15;4.22;;;0.93;;
49310;SDS011;35177;45.900;5.946;2023-05-10T10:19:40;2.45;;;0.70;;
49310;SDS011;35177;45.900;5.946;2023-05-10T10:22:06;1.80;;;0.60;;
49310;SDS011;35177;45.900;5.946;2023-05-10T10:24:31;2.92;;;0.55;;
49310;SDS011;35177;45.900;5.946;2023-05-10T10:26:59;0.45;;;0.30;;
49310;SDS011;35177;45.900;5.946;2023-05-10T10:29:34;2.13;;;0.57;;
49310;SDS011;35177;45.900;5.946;2023-05-10T10:32:03;5.25;;;0.63;;
49310;SDS011;35177;45.900;5.946;2023-05-10T10:34:31;2.10;;;1.15;;
49310;SDS011;35177;45.900;5.946;2023-05-10T10:36:57;2.47;;;0.50;;
49310;SDS011;35177;45.900;5.946;2023-05-10T10:39:23;8.10;;;0.65;;
49310;SDS011;35177;45.900;5.946;2023-05-10T10:47:04;2.67;;;0.70;;
49310;SDS011;35177;45.900;5.946;2023-05-10T10:49:50;4.30;;;0.60;;
49310;SDS011;35177;45.900;5.946;2023-05-10T10:55:05;3.00;;;0.65;;
49310;SDS011;35177;45.900;5.946;2023-05-10T10:57:32;2.75;;;0.70;;
49310;SDS011;35177;45.900;5.946;2023-05-10T11:02:45;2.83;;;0.90;;
49310;SDS011;35177;45.900;5.946;2023-05-10T11:07:55;1.65;;;0.52;;
49310;SDS011;35177;45.900;5.946;2023-05-10T11:10:21;0.73;;;0.50;;
49310;SDS011;35177;45.900;5.946;2023-05-10T11:13:08;2.92;;;0.70;;
49310;SDS011;35177;45.900;5.946;2023-05-10T11:15:33;1.38;;;0.63;;
49310;SDS011;35177;45.900;5.946;2023-05-10T11:17:58;1.50;;;0.50;;
49310;SDS011;35177;45.900;5.946;2023-05-10T11:20:26;0.63;;;0.40;;
49310;SDS011;35177;45.900;5.946;2023-05-10T11:22:58;1.02;;;0.60;;
49310;SDS011;35177;45.900;5.946;2023-05-10T11:25:29;0.95;;;0.40;;
49310;SDS011;35177;45.900;5.946;2023-05-10T11:27:54;1.92;;;0.40;;
49310;SDS011;35177;45.900;5.946;2023-05-10T11:30:19;0.47;;;0.40;;
49310;SDS011;35177;45.900;5.946;2023-05-10T11:32:45;0.90;;;0.38;;
49310;SDS011;35177;45.900;5.946;2023-05-10T11:35:10;0.85;;;0.38;;
49310;SDS011;35177;45.900;5.946;2023-05-10T11:37:36;0.75;;;0.30;;
49310;SDS011;35177;45.900;5.946;2023-05-10T11:40:03;0.88;;;0.40;;
49310;SDS011;35177;45.900;5.946;2023-05-10T11:42:28;1.77;;;0.40;;
49310;SDS011;35177;45.900;5.946;2023-05-10T11:44:54;0.82;;;0.35;;
49310;SDS011;35177;45.900;5.946;2023-05-10T11:47:19;1.40;;;0.40;;
49310;SDS011;35177;45.900;5.946;2023-05-10T11:49:45;0.63;;;0.50;;
49310;SDS011;35177;45.900;5.946;2023-05-10T11:52:10;0.77;;;0.40;;
49310;SDS011;35177;45.900;5.946;2023-05-10T11:54:44;0.43;;;0.30;;
49310;SDS011;35177;45.900;5.946;2023-05-10T11:57:11;1.20;;;0.57;;
49310;SDS011;35177;45.900;5.946;2023-05-10T11:59:36;2.60;;;0.82;;
49310;SDS011;35177;45.900;5.946;2023-05-10T12:02:02;2.35;;;0.60;;
49310;SDS011;35177;45.900;5.946;2023-05-10T12:04:28;2.65;;;0.60;;
49310;SDS011;35177;45.900;5.946;2023-05-10T12:06:54;0.85;;;0.50;;
49310;SDS011;35177;45.900;5.946;2023-05-10T12:09:19;0.85;;;0.47;;
49310;SDS011;35177;45.900;5.946;2023-05-10T12:11:45;0.93;;;0.47;;
49310;SDS011;35177;45.900;5.946;2023-05-10T12:14:10;1.95;;;0.50;;
49310;SDS011;35177;45.900;5.946;2023-05-10T12:16:36;2.85;;;0.60;;
49310;SDS011;35177;45.900;5.946;2023-05-10T12:19:01;2.47;;;0.52;;
49310;SDS011;35177;45.900;5.946;2023-05-10T12:21:29;0.82;;;0.43;;
49310;SDS011;35177;45.900;5.946;2023-05-10T12:24:02;2.10;;;0.60;;
49310;SDS011;35177;45.900;5.946;2023-05-10T12:26:28;1.80;;;0.47;;
49310;SDS011;35177;45.900;5.946;2023-05-10T12:28:53;0.60;;;0.40;;
49310;SDS011;35177;45.900;5.946;2023-05-10T12:31:19;3.22;;;0.47;;
49310;SDS011;35177;45.900;5.946;2023-05-10T12:33:44;1.98;;;0.50;;
49310;SDS011;35177;45.900;5.946;2023-05-10T12:36:10;0.63;;;0.30;;
49310;SDS011;35177;45.900;5.946;2023-05-10T12:38:37;1.52;;;0.40;;
49310;SDS011;35177;45.900;5.946;2023-05-10T12:41:04;1.65;;;0.40;;
49310;SDS011;35177;45.900;5.946;2023-05-10T12:43:29;3.92;;;0.30;;
49310;SDS011;35177;45.900;5.946;2023-05-10T12:45:55;0.80;;;0.35;;
49310;SDS011;35177;45.900;5.946;2023-05-10T12:48:20;2.25;;;0.70;;
49310;SDS011;35177;45.900;5.946;2023-05-10T12:50:46;0.98;;;0.30;;
49310;SDS011;35177;45.900;5.946;2023-05-10T12:53:13;2.88;;;0.47;;
49310;SDS011;35177;45.900;5.946;2023-05-10T12:55:38;1.08;;;0.40;;
49310;SDS011;35177;45.900;5.946;2023-05-10T12:58:04;1.35;;;0.50;;
49310;SDS011;35177;45.900;5.946;2023-05-10T13:00:29;1.55;;;0.50;;
49310;SDS011;35177;45.900;5.946;2023-05-10T13:02:55;0.93;;;0.40;;
49310;SDS011;35177;45.900;5.946;2023-05-10T13:05:20;0.55;;;0.40;;
49310;SDS011;35177;45.900;5.946;2023-05-10T13:07:45;0.52;;;0.30;;
49310;SDS011;35177;45.900;5.946;2023-05-10T13:10:11;2.17;;;0.38;;
49310;SDS011;35177;45.900;5.946;2023-05-10T13:12:36;4.05;;;0.63;;
49310;SDS011;35177;45.900;5.946;2023-05-10T13:15:01;0.60;;;0.30;;
49310;SDS011;35177;45.900;5.946;2023-05-10T13:17:28;2.58;;;0.50;;
49310;SDS011;35177;45.900;5.946;2023-05-10T13:19:53;0.68;;;0.45;;
49310;SDS011;35177;45.900;5.946;2023-05-10T13:22:18;0.93;;;0.47;;
49310;SDS011;35177;45.900;5.946;2023-05-10T13:24:43;0.57;;;0.40;;
49310;SDS011;35177;45.900;5.946;2023-05-10T13:27:09;0.57;;;0.20;;
49310;SDS011;35177;45.900;5.946;2023-05-10T13:29:34;3.58;;;0.40;;
49310;SDS011;35177;45.900;5.946;2023-05-10T13:31:59;0.73;;;0.20;;
49310;SDS011;35177;45.900;5.946;2023-05-10T13:34:25;2.53;;;0.40;;
49310;SDS011;35177;45.900;5.946;2023-05-10T13:36:50;1.45;;;0.40;;
49310;SDS011;35177;45.900;5.946;2023-05-10T13:39:16;1.70;;;0.45;;
49310;SDS011;35177;45.900;5.946;2023-05-10T13:41:41;2.70;;;0.52;;
49310;SDS011;35177;45.900;5.946;2023-05-10T13:44:07;0.90;;;0.30;;
49310;SDS011;35177;45.900;5.946;2023-05-10T13:46:32;1.23;;;0.40;;
49310;SDS011;35177;45.900;5.946;2023-05-10T13:48:57;2.97;;;0.63;;
49310;SDS011;35177;45.900;5.946;2023-05-10T13:51:23;3.38;;;0.52;;
49310;SDS011;35177;45.900;5.946;2023-05-10T13:53:48;1.63;;;0.63;;
49310;SDS011;35177;45.900;5.946;2023-05-10T13:56:13;2.83;;;0.40;;
49310;SDS011;35177;45.900;5.946;2023-05-10T13:58:39;1.38;;;0.40;;
49310;SDS011;35177;45.900;5.946;2023-05-10T14:01:04;0.60;;;0.40;;
49310;SDS011;35177;45.900;5.946;2023-05-10T14:03:30;1.08;;;0.40;;
49310;SDS011;35177;45.900;5.946;2023-05-10T14:05:56;1.63;;;0.30;;
49310;SDS011;35177;45.900;5.946;2023-05-10T14:08:21;1.73;;;0.40;;
49310;SDS011;35177;45.900;5.946;2023-05-10T14:10:46;0.60;;;0.35;;
49310;SDS011;35177;45.900;5.946;2023-05-10T14:13:11;1.02;;;0.47;;
49310;SDS011;35177;45.900;5.946;2023-05-10T14:15:37;0.88;;;0.43;;
49310;SDS011;35177;45.900;5.946;2023-05-10T14:18:02;1.23;;;0.40;;
49310;SDS011;35177;45.900;5.946;2023-05-10T14:20:27;0.55;;;0.30;;
49310;SDS011;35177;45.900;5.946;2023-05-10T14:22:53;1.50;;;0.57;;
49310;SDS011;35177;45.900;5.946;2023-05-10T14:25:19;0.90;;;0.40;;
49310;SDS011;35177;45.900;5.946;2023-05-10T14:27:44;1.52;;;0.38;;
49310;SDS011;35177;45.900;5.946;2023-05-10T14:30:09;0.60;;;0.35;;
49310;SDS011;35177;45.900;5.946;2023-05-10T14:32:35;2.08;;;0.65;;
49310;SDS011;35177;45.900;5.946;2023-05-10T14:35:01;5.15;;;0.40;;
49310;SDS011;35177;45.900;5.946;2023-05-10T14:37:27;0.93;;;0.40;;
49310;SDS011;35177;45.900;5.946;2023-05-10T14:39:52;2.60;;;0.70;;
49310;SDS011;35177;45.900;5.946;2023-05-10T14:42:17;2.63;;;1.15;;
49310;SDS011;35177;45.900;5.946;2023-05-10T14:44:43;0.50;;;0.50;;
49310;SDS011;35177;45.900;5.946;2023-05-10T14:47:08;1.38;;;0.55;;
49310;SDS011;35177;45.900;5.946;2023-05-10T14:49:33;0.85;;;0.32;;
49310;SDS011;35177;45.900;5.946;2023-05-10T14:51:59;1.63;;;0.50;;
49310;SDS011;35177;45.900;5.946;2023-05-10T14:54:24;1.00;;;0.43;;
49310;SDS011;35177;45.900;5.946;2023-05-10T14:56:49;1.02;;;0.43;;
49310;SDS011;35177;45.900;5.946;2023-05-10T14:59:15;0.75;;;0.40;;
49310;SDS011;35177;45.900;5.946;2023-05-10T15:01:40;3.20;;;0.75;;
49310;SDS011;35177;45.900;5.946;2023-05-10T15:04:07;2.53;;;0.60;;
49310;SDS011;35177;45.900;5.946;2023-05-10T15:06:33;1.83;;;0.40;;
49310;SDS011;35177;45.900;5.946;2023-05-10T15:08:59;1.88;;;0.50;;
49310;SDS011;35177;45.900;5.946;2023-05-10T15:11:24;1.05;;;0.50;;
49310;SDS011;35177;45.900;5.946;2023-05-10T15:13:50;0.65;;;0.40;;
49310;SDS011;35177;45.900;5.946;2023-05-10T15:16:15;1.02;;;0.40;;